createdAt,value
2018-07-12T00:00:39.604Z,3.53
2018-07-12T00:03:05.756Z,3.00
2018-07-12T00:05:31.891Z,3.27
2018-07-12T00:07:58.049Z,2.50
2018-07-12T00:10:24.156Z,2.67
2018-07-12T00:12:50.275Z,2.27
2018-07-12T00:15:16.416Z,2.97
2018-07-12T00:17:42.551Z,2.97
2018-07-12T00:20:08.649Z,3.07
2018-07-12T00:22:34.775Z,3.23
2018-07-12T00:25:00.906Z,2.60
2018-07-12T00:27:27.028Z,3.27
2018-07-12T00:29:53.263Z,2.80
2018-07-12T00:32:19.403Z,2.80
2018-07-12T00:34:45.509Z,2.93
2018-07-12T00:37:11.601Z,3.23
2018-07-12T00:39:37.744Z,3.50
2018-07-12T00:42:04.283Z,3.07
2018-07-12T00:44:30.392Z,3.50
2018-07-12T00:46:56.595Z,3.57
2018-07-12T00:49:22.799Z,3.30
2018-07-12T00:51:48.933Z,3.70
2018-07-12T00:54:15.044Z,3.07
2018-07-12T00:56:41.178Z,3.73
2018-07-12T00:59:07.267Z,3.97
2018-07-12T01:01:33.488Z,3.77
2018-07-12T01:03:59.591Z,4.00
2018-07-12T01:06:25.710Z,3.83
2018-07-12T01:08:51.826Z,3.30
2018-07-12T01:11:17.940Z,3.50
2018-07-12T01:13:44.047Z,4.37
2018-07-12T01:16:10.161Z,3.70
2018-07-12T01:18:36.296Z,4.60
2018-07-12T01:21:02.401Z,4.43
2018-07-12T01:23:28.536Z,4.77
2018-07-12T01:25:54.668Z,5.00
2018-07-12T01:28:20.788Z,5.10
2018-07-12T01:30:46.896Z,4.67
2018-07-12T01:33:13.068Z,4.50
2018-07-12T01:35:39.199Z,5.27
2018-07-12T01:38:05.356Z,4.63
2018-07-12T01:40:31.524Z,4.73
2018-07-12T01:42:57.671Z,4.50
2018-07-12T01:45:23.792Z,4.90
2018-07-12T01:47:49.890Z,5.00
2018-07-12T01:50:15.999Z,5.53
2018-07-12T01:52:42.186Z,5.00
2018-07-12T01:55:08.345Z,4.50
2018-07-12T01:57:34.463Z,5.07
2018-07-12T02:00:00.608Z,5.60
2018-07-12T02:02:26.743Z,4.50
2018-07-12T02:04:52.878Z,4.80
2018-07-12T02:07:19.032Z,4.57
2018-07-12T02:09:45.167Z,5.27
2018-07-12T02:12:11.296Z,4.57
2018-07-12T02:14:37.392Z,5.47
2018-07-12T02:17:03.574Z,5.33
2018-07-12T02:19:29.665Z,4.90
2018-07-12T02:21:55.772Z,6.60
2018-07-12T02:24:21.919Z,5.80
2018-07-12T02:26:48.048Z,5.83
2018-07-12T02:29:14.167Z,4.97
2018-07-12T02:31:40.304Z,5.03
2018-07-12T02:34:06.400Z,5.50
2018-07-12T02:36:32.566Z,6.20
2018-07-12T02:38:58.669Z,6.00
2018-07-12T02:41:24.788Z,6.53
2018-07-12T02:43:50.929Z,7.03
2018-07-12T02:46:17.181Z,6.67
2018-07-12T02:48:43.300Z,7.00
2018-07-12T02:51:09.521Z,6.17
2018-07-12T02:53:35.653Z,5.50
2018-07-12T02:56:01.779Z,7.10
2018-07-12T02:58:27.877Z,6.43
2018-07-12T03:00:54.001Z,6.83
2018-07-12T03:03:20.118Z,7.27
2018-07-12T03:05:46.236Z,7.30
2018-07-12T03:08:12.356Z,7.13
2018-07-12T03:10:38.492Z,6.77
2018-07-12T03:13:04.643Z,7.47
2018-07-12T03:15:30.773Z,7.23
2018-07-12T03:17:56.927Z,7.63
2018-07-12T03:20:23.017Z,7.30
2018-07-12T03:22:49.165Z,7.87
2018-07-12T03:25:15.282Z,8.37
2018-07-12T03:27:41.454Z,8.40
2018-07-12T03:30:07.599Z,8.40
2018-07-12T03:32:33.723Z,9.10
2018-07-12T03:34:59.828Z,8.90
2018-07-12T03:37:25.948Z,8.50
2018-07-12T03:39:52.072Z,8.67
2018-07-12T03:42:18.184Z,10.07
2018-07-12T03:44:44.317Z,11.40
2018-07-12T03:47:10.409Z,10.47
2018-07-12T03:49:36.538Z,11.20
2018-07-12T03:52:02.659Z,11.60
2018-07-12T03:54:28.776Z,11.40
2018-07-12T03:56:54.875Z,15.53
2018-07-12T03:59:21.020Z,12.33
2018-07-12T04:01:47.116Z,13.30
2018-07-12T04:04:13.379Z,11.60
2018-07-12T04:06:39.493Z,12.00
2018-07-12T04:09:06.060Z,12.40
2018-07-12T04:11:32.201Z,13.10
2018-07-12T04:13:58.449Z,13.33
2018-07-12T04:16:24.606Z,12.27
2018-07-12T04:18:50.740Z,17.63
2018-07-12T04:21:16.884Z,13.47
2018-07-12T04:23:42.976Z,12.60
2018-07-12T04:26:09.123Z,12.27
2018-07-12T04:28:35.224Z,16.13
2018-07-12T04:31:01.344Z,14.50
2018-07-12T04:33:27.472Z,14.07
2018-07-12T04:35:53.576Z,15.20
2018-07-12T04:38:19.712Z,14.50
2018-07-12T04:40:45.796Z,17.67
2018-07-12T04:43:11.920Z,15.27
2018-07-12T04:45:38.013Z,15.87
2018-07-12T04:48:04.112Z,15.87
2018-07-12T04:50:30.231Z,15.57
2018-07-12T04:52:56.372Z,16.40
2018-07-12T04:55:22.488Z,15.57
2018-07-12T04:57:48.624Z,16.10
2018-07-12T05:00:14.748Z,15.30
2018-07-12T05:02:40.883Z,15.97
2018-07-12T05:05:07.030Z,15.43
2018-07-12T05:07:33.171Z,16.40
2018-07-12T05:09:59.304Z,16.20
2018-07-12T05:12:25.420Z,19.53
2018-07-12T05:14:51.512Z,16.77
2018-07-12T05:17:17.644Z,17.33
2018-07-12T05:19:43.818Z,17.77
2018-07-12T05:22:09.948Z,16.00
2018-07-12T05:24:36.098Z,17.50
2018-07-12T05:27:02.204Z,17.80
2018-07-12T05:29:28.313Z,18.00
2018-07-12T05:31:54.452Z,16.13
2018-07-12T05:34:20.560Z,18.07
2018-07-12T05:36:52.074Z,17.43
2018-07-12T05:39:19.926Z,17.83
2018-07-12T05:41:47.136Z,20.10
2018-07-12T05:44:15.041Z,17.80
2018-07-12T05:46:42.421Z,19.83
2018-07-12T05:49:09.603Z,18.47
2018-07-12T05:51:36.728Z,20.27
2018-07-12T05:54:03.895Z,20.87
2018-07-12T05:56:31.036Z,20.10
2018-07-12T05:58:58.183Z,19.20
2018-07-12T06:02:32.719Z,18.73
2018-07-12T06:04:59.844Z,20.30
2018-07-12T06:07:29.503Z,19.80
2018-07-12T06:09:56.713Z,18.37
2018-07-12T06:12:23.869Z,18.80
2018-07-12T06:14:51.040Z,20.27
2018-07-12T06:17:18.161Z,21.37
2018-07-12T06:19:45.403Z,18.90
2018-07-12T06:22:12.880Z,20.57
2018-07-12T06:24:40.138Z,22.13
2018-07-12T06:27:07.614Z,18.63
2018-07-12T06:29:34.824Z,20.37
2018-07-12T06:32:01.925Z,19.40
2018-07-12T06:34:29.193Z,21.07
2018-07-12T06:36:56.278Z,21.60
2018-07-12T06:39:23.512Z,20.63
2018-07-12T06:41:51.093Z,20.70
2018-07-12T06:44:18.197Z,20.50
2018-07-12T06:46:45.305Z,20.63
2018-07-12T06:49:12.429Z,21.70
2018-07-12T06:51:39.552Z,20.70
2018-07-12T06:54:06.860Z,20.83
2018-07-12T06:56:34.005Z,20.03
2018-07-12T06:59:01.130Z,20.93
2018-07-12T07:01:28.252Z,19.93
2018-07-12T07:03:55.681Z,18.43
2018-07-12T07:06:22.769Z,19.40
2018-07-12T07:08:49.888Z,18.83
2018-07-12T07:11:17.006Z,19.80
2018-07-12T07:13:44.160Z,19.27
2018-07-12T07:16:11.319Z,21.57
2018-07-12T07:18:38.498Z,20.40
2018-07-12T07:21:05.712Z,19.50
2018-07-12T07:23:32.872Z,19.47
2018-07-12T07:25:59.985Z,19.83
2018-07-12T07:28:27.140Z,20.63
2018-07-12T07:30:54.279Z,20.37
2018-07-12T07:33:21.434Z,18.60
2018-07-12T07:35:48.620Z,19.00
2018-07-12T07:38:15.735Z,19.67
2018-07-12T07:40:42.833Z,21.13
2018-07-12T07:43:10.066Z,19.67
2018-07-12T07:45:37.392Z,18.27
2018-07-12T07:48:04.592Z,19.97
2018-07-12T07:50:31.784Z,20.70
2018-07-12T07:52:58.929Z,20.77
2018-07-12T07:55:26.070Z,18.23
2018-07-12T07:57:53.192Z,20.87
2018-07-12T08:00:20.372Z,19.30
2018-07-12T08:02:47.457Z,19.70
2018-07-12T08:05:14.981Z,21.63
2018-07-12T08:07:42.426Z,18.97
2018-07-12T08:10:09.596Z,20.77
2018-07-12T08:12:36.733Z,19.57
2018-07-12T08:15:04.769Z,19.10
2018-07-12T08:17:31.881Z,17.50
2018-07-12T08:19:59.000Z,18.03
2018-07-12T08:22:26.119Z,20.07
2018-07-12T08:24:53.279Z,16.50
2018-07-12T08:27:20.433Z,16.73
2018-07-12T08:29:47.722Z,16.53
2018-07-12T08:32:14.947Z,16.67
2018-07-12T08:34:42.055Z,15.53
2018-07-12T08:37:09.157Z,14.80
2018-07-12T08:39:36.338Z,14.83
2018-07-12T08:42:03.470Z,13.87
2018-07-12T08:44:30.668Z,11.60
2018-07-12T08:46:57.823Z,12.20
2018-07-12T08:49:24.992Z,11.57
2018-07-12T08:51:52.080Z,12.07
2018-07-12T08:54:19.270Z,11.60
2018-07-12T08:56:46.456Z,12.67
2018-07-12T08:59:13.612Z,13.23
2018-07-12T09:01:40.752Z,13.10
2018-07-12T09:04:07.933Z,13.00
2018-07-12T09:06:35.075Z,11.47
2018-07-12T09:09:02.396Z,11.57
2018-07-12T09:11:29.860Z,13.33
2018-07-12T09:13:57.012Z,11.50
2018-07-12T09:16:24.996Z,12.20
2018-07-12T09:18:52.141Z,14.30
2018-07-12T09:21:19.283Z,11.93
2018-07-12T09:23:46.430Z,13.53
2018-07-12T09:26:13.591Z,12.20
2018-07-12T09:28:40.688Z,13.50
2018-07-12T09:31:08.239Z,12.10
2018-07-12T09:33:35.376Z,10.80
2018-07-12T09:36:02.607Z,10.00
2018-07-12T09:38:51.313Z,11.23
2018-07-12T09:41:19.762Z,10.30
2018-07-12T09:43:47.423Z,11.17
2018-07-12T09:46:14.834Z,10.43
2018-07-12T09:48:43.445Z,8.93
2018-07-12T09:51:11.305Z,9.80
2018-07-12T09:53:39.005Z,10.50
2018-07-12T09:56:06.370Z,12.20
2018-07-12T09:58:34.049Z,11.40
2018-07-12T10:01:06.912Z,10.83
2018-07-12T10:03:39.886Z,11.53
2018-07-12T10:06:12.728Z,9.07
2018-07-12T10:08:45.467Z,8.37
2018-07-12T10:11:18.229Z,8.57
2018-07-12T10:13:50.711Z,9.27
2018-07-12T10:16:24.523Z,8.80
2018-07-12T10:18:51.928Z,8.20
2018-07-12T10:21:19.129Z,8.00
2018-07-12T10:23:46.304Z,8.07
2018-07-12T10:26:13.447Z,7.50
2018-07-12T10:28:40.576Z,7.70
2018-07-12T10:31:07.748Z,6.30
2018-07-12T10:33:34.861Z,6.30
2018-07-12T10:36:01.965Z,9.97
2018-07-12T10:38:29.040Z,6.93
2018-07-12T10:40:56.145Z,6.90
2018-07-12T10:43:23.315Z,7.27
2018-07-12T10:45:50.517Z,5.73
2018-07-12T10:48:17.656Z,6.00
2018-07-12T10:50:44.809Z,5.20
2018-07-12T10:53:11.937Z,5.00
2018-07-12T10:55:39.071Z,4.97
2018-07-12T10:58:06.215Z,5.40
2018-07-12T11:00:33.401Z,6.70
2018-07-12T11:03:00.531Z,6.50
2018-07-12T11:05:27.692Z,5.93
2018-07-12T11:07:54.990Z,5.43
2018-07-12T11:10:22.055Z,4.63
2018-07-12T11:13:00.720Z,5.53
2018-07-12T11:15:27.869Z,5.40
2018-07-12T11:17:54.985Z,4.67
2018-07-12T11:20:22.167Z,4.23
2018-07-12T11:22:49.321Z,3.97
2018-07-12T11:25:16.439Z,4.63
2018-07-12T11:27:43.557Z,3.90
2018-07-12T11:30:10.736Z,3.93
2018-07-12T11:32:37.915Z,4.07
2018-07-12T11:35:05.341Z,3.70
2018-07-12T11:37:39.284Z,3.80
2018-07-12T11:40:06.485Z,3.77
2018-07-12T11:42:33.612Z,3.93
2018-07-12T11:45:00.717Z,3.90
2018-07-12T11:47:27.892Z,3.93
2018-07-12T11:49:55.008Z,3.80
2018-07-12T11:52:22.182Z,4.03
2018-07-12T11:54:49.328Z,3.80
2018-07-12T11:57:16.515Z,3.80
2018-07-12T11:59:43.634Z,3.33
2018-07-12T12:02:10.941Z,3.03
2018-07-12T12:04:38.180Z,3.90
2018-07-12T12:07:05.358Z,3.50
2018-07-12T12:09:32.564Z,4.17
2018-07-12T12:11:59.756Z,4.00
2018-07-12T12:14:26.905Z,3.00
2018-07-12T12:16:54.172Z,3.40
2018-07-12T12:19:21.335Z,3.00
2018-07-12T12:21:48.500Z,3.50
2018-07-12T12:24:15.628Z,3.33
2018-07-12T12:26:42.801Z,3.00
2018-07-12T12:29:09.988Z,3.10
2018-07-12T12:31:37.125Z,3.13
2018-07-12T12:34:04.300Z,3.20
2018-07-12T12:36:31.388Z,2.87
2018-07-12T12:38:58.533Z,2.80
2018-07-12T12:41:25.659Z,3.40
2018-07-12T12:43:52.809Z,3.03
2018-07-12T12:46:19.917Z,2.67
2018-07-12T12:48:47.032Z,2.80
2018-07-12T12:51:14.182Z,3.10
2018-07-12T12:53:41.357Z,2.70
2018-07-12T12:56:08.504Z,2.67
2018-07-12T12:58:35.639Z,2.63
2018-07-12T13:01:02.843Z,2.77
2018-07-12T13:03:30.020Z,2.50
2018-07-12T13:05:57.172Z,2.53
2018-07-12T13:08:24.332Z,3.10
2018-07-12T13:10:51.464Z,2.30
2018-07-12T13:13:18.584Z,2.57
2018-07-12T13:15:45.729Z,2.90
2018-07-12T13:18:12.879Z,2.70
2018-07-12T13:20:40.178Z,2.20
2018-07-12T13:23:07.345Z,3.10
2018-07-12T13:25:34.541Z,2.57
2018-07-12T13:28:01.717Z,2.43
2018-07-12T13:30:28.804Z,2.70
2018-07-12T13:32:56.027Z,3.27
2018-07-12T13:35:23.157Z,3.13
2018-07-12T13:37:50.283Z,3.23
2018-07-12T13:40:18.595Z,3.03
2018-07-12T13:42:45.769Z,2.90
2018-07-12T13:45:12.952Z,2.50
2018-07-12T13:47:40.139Z,3.33
2018-07-12T13:50:07.292Z,2.80
2018-07-12T13:52:34.444Z,3.10
2018-07-12T13:55:01.552Z,2.80
2018-07-12T13:57:28.667Z,3.80
2018-07-12T13:59:55.800Z,3.17
2018-07-12T14:02:22.935Z,3.17
2018-07-12T14:04:50.063Z,3.40
2018-07-12T14:07:17.181Z,3.27
2018-07-12T14:09:44.324Z,3.30
2018-07-12T14:12:11.478Z,3.70
2018-07-12T14:14:38.581Z,3.60
2018-07-12T14:17:05.759Z,3.87
2018-07-12T14:19:32.932Z,3.30
2018-07-12T14:22:00.116Z,3.40
2018-07-12T14:24:27.277Z,3.13
2018-07-12T14:26:54.416Z,3.30
2018-07-12T14:29:21.575Z,4.00
2018-07-12T14:31:48.704Z,4.47
2018-07-12T14:34:15.825Z,3.73
2018-07-12T14:36:43.027Z,4.10
2018-07-12T14:39:10.159Z,3.50
2018-07-12T14:41:37.329Z,3.23
2018-07-12T14:44:04.528Z,3.93
2018-07-12T14:46:31.664Z,3.70
2018-07-12T14:48:58.866Z,3.20
2018-07-12T14:51:32.779Z,3.37
2018-07-12T14:53:59.982Z,3.10
2018-07-12T14:56:27.093Z,3.70
2018-07-12T14:58:54.239Z,3.90
2018-07-12T15:01:21.339Z,3.47
2018-07-12T15:03:48.532Z,4.10
2018-07-12T15:06:15.692Z,3.30
2018-07-12T15:08:42.866Z,3.07
2018-07-12T15:11:09.957Z,3.57
2018-07-12T15:13:37.096Z,3.50
2018-07-12T15:16:04.311Z,3.30
2018-07-12T15:18:31.467Z,3.63
2018-07-12T15:20:58.573Z,4.20
2018-07-12T15:23:25.795Z,3.23
2018-07-12T15:25:53.115Z,3.23
2018-07-12T15:28:20.422Z,3.20
2018-07-12T15:30:47.699Z,3.80
2018-07-12T15:33:14.981Z,3.33
2018-07-12T15:35:42.664Z,3.50
2018-07-12T15:38:09.789Z,3.70
2018-07-12T15:40:36.988Z,3.07
2018-07-12T15:43:04.281Z,3.00
2018-07-12T15:45:31.550Z,3.60
2018-07-12T15:47:58.855Z,3.20
2018-07-12T15:50:26.820Z,2.77
2018-07-12T15:52:54.745Z,2.37
2018-07-12T15:55:21.895Z,2.70
2018-07-12T15:57:50.465Z,3.67
2018-07-12T16:00:17.921Z,2.90
2018-07-12T16:02:45.280Z,2.97
2018-07-12T16:05:12.562Z,3.30
2018-07-12T16:07:39.776Z,2.77
2018-07-12T16:10:07.082Z,3.00
2018-07-12T16:12:34.320Z,3.37
2018-07-12T16:15:01.529Z,2.97
2018-07-12T16:17:28.756Z,3.43
2018-07-12T16:19:56.700Z,3.40
2018-07-12T16:22:23.888Z,3.23
2018-07-12T16:24:51.100Z,3.10
2018-07-12T16:27:18.303Z,2.77
2018-07-12T16:29:45.615Z,3.13
2018-07-12T16:32:12.831Z,3.60
2018-07-12T16:34:39.952Z,3.10
2018-07-12T16:37:07.120Z,2.90
2018-07-12T16:39:34.224Z,3.10
2018-07-12T16:42:01.435Z,3.43
2018-07-12T16:44:28.531Z,3.33
2018-07-12T16:46:55.705Z,3.40
2018-07-12T16:49:22.861Z,3.43
2018-07-12T16:51:50.040Z,3.07
2018-07-12T16:54:17.255Z,3.00
2018-07-12T16:56:44.419Z,2.87
2018-07-12T16:59:11.633Z,3.53
2018-07-12T17:01:38.785Z,3.13
2018-07-12T17:04:05.956Z,3.53
2018-07-12T17:06:33.147Z,3.57
2018-07-12T17:09:00.348Z,3.00
2018-07-12T17:11:27.494Z,3.30
2018-07-12T17:13:54.670Z,3.13
2018-07-12T17:16:21.844Z,3.37
2018-07-12T17:18:49.058Z,3.37
2018-07-12T17:21:16.284Z,3.97
2018-07-12T17:23:43.522Z,3.00
2018-07-12T17:26:10.801Z,2.83
2018-07-12T17:28:37.946Z,3.37
2018-07-12T17:31:12.131Z,3.00
2018-07-12T17:33:39.368Z,3.50
2018-07-12T17:36:06.494Z,3.27
2018-07-12T17:38:33.640Z,3.40
2018-07-12T17:41:00.837Z,3.27
2018-07-12T17:43:27.996Z,2.80
2018-07-12T17:45:55.155Z,3.30
2018-07-12T17:48:22.273Z,2.90
2018-07-12T17:50:49.504Z,3.17
2018-07-12T17:53:16.741Z,3.23
2018-07-12T17:55:43.935Z,3.30
2018-07-12T17:58:11.384Z,3.10
2018-07-12T18:00:38.535Z,3.30
2018-07-12T18:03:05.726Z,3.20
2018-07-12T18:05:32.950Z,2.90
2018-07-12T18:08:00.072Z,3.37
2018-07-12T18:10:27.371Z,3.10
2018-07-12T18:12:54.605Z,3.07
2018-07-12T18:15:21.783Z,3.40
2018-07-12T18:17:48.984Z,3.50
2018-07-12T18:20:16.176Z,4.00
2018-07-12T18:22:43.340Z,3.67
2018-07-12T18:25:10.567Z,3.00
2018-07-12T18:27:49.141Z,3.00
2018-07-12T18:30:16.339Z,3.00
2018-07-12T18:32:43.524Z,3.37
2018-07-12T18:35:10.704Z,3.13
2018-07-12T18:37:37.876Z,3.17
2018-07-12T18:40:05.273Z,3.00
2018-07-12T18:42:32.475Z,2.97
2018-07-12T18:44:59.660Z,2.93
2018-07-12T18:47:26.800Z,3.00
2018-07-12T18:49:54.005Z,3.40
2018-07-12T18:52:21.159Z,3.70
2018-07-12T18:54:48.321Z,3.70
2018-07-12T18:57:15.709Z,4.70
2018-07-12T18:59:42.779Z,3.03
2018-07-12T19:02:09.982Z,3.27
2018-07-12T19:04:37.195Z,3.30
2018-07-12T19:07:04.326Z,3.30
2018-07-12T19:09:31.517Z,3.40
2018-07-12T19:11:58.704Z,3.73
2018-07-12T19:14:26.008Z,3.80
2018-07-12T19:16:53.108Z,3.00
2018-07-12T19:19:20.290Z,2.97
2018-07-12T19:21:47.437Z,4.13
2018-07-12T19:24:15.006Z,3.87
2018-07-12T19:26:42.154Z,4.40
2018-07-12T19:29:09.299Z,3.73
2018-07-12T19:31:36.457Z,3.70
2018-07-12T19:34:03.596Z,4.10
2018-07-12T19:36:30.783Z,4.00
2018-07-12T19:38:57.933Z,4.37
2018-07-12T19:41:25.126Z,4.40
2018-07-12T19:43:52.325Z,4.47
2018-07-12T19:46:19.489Z,3.93
2018-07-12T19:48:46.638Z,3.67
2018-07-12T19:51:13.742Z,3.97
2018-07-12T19:53:40.911Z,4.50
2018-07-12T19:56:08.071Z,4.00
2018-07-12T19:58:35.480Z,4.87
2018-07-12T20:01:02.668Z,4.43
2018-07-12T20:03:29.848Z,3.93
2018-07-12T20:05:57.112Z,6.13
2018-07-12T20:08:24.373Z,4.80
2018-07-12T20:10:52.198Z,5.53
2018-07-12T20:13:19.340Z,6.53
2018-07-12T20:15:47.571Z,5.63
2018-07-12T20:18:14.703Z,4.90
2018-07-12T20:20:41.953Z,5.00
2018-07-12T20:23:09.131Z,4.80
2018-07-12T20:25:36.480Z,4.10
2018-07-12T20:28:03.694Z,4.23
2018-07-12T20:30:30.869Z,4.30
2018-07-12T20:32:58.060Z,4.87
2018-07-12T20:35:25.257Z,4.40
2018-07-12T20:37:52.418Z,3.63
2018-07-12T20:40:19.552Z,4.70
2018-07-12T20:42:46.675Z,4.77
2018-07-12T20:45:13.820Z,4.20
2018-07-12T20:47:40.991Z,4.87
2018-07-12T20:50:08.124Z,5.50
2018-07-12T20:52:35.257Z,4.77
2018-07-12T20:55:02.985Z,4.87
2018-07-12T20:57:30.311Z,5.60
2018-07-12T20:59:57.519Z,5.53
2018-07-12T21:02:24.685Z,5.33
2018-07-12T21:04:52.021Z,5.30
2018-07-12T21:07:19.259Z,6.00
2018-07-12T21:09:46.468Z,5.93
2018-07-12T21:12:13.647Z,5.80
2018-07-12T21:14:40.809Z,5.87
2018-07-12T21:17:07.956Z,5.20
2018-07-12T21:19:35.104Z,5.50
2018-07-12T21:22:02.236Z,6.10
2018-07-12T21:24:29.452Z,5.40
2018-07-12T21:26:56.612Z,5.57
2018-07-12T21:29:23.848Z,5.80
2018-07-12T21:31:51.021Z,6.87
2018-07-12T21:34:18.203Z,6.70
2018-07-12T21:36:45.335Z,6.10
2018-07-12T21:39:12.434Z,7.60
2018-07-12T21:41:39.728Z,6.50
2018-07-12T21:44:06.908Z,6.03
2018-07-12T21:46:34.080Z,5.63
2018-07-12T21:49:01.224Z,6.00
2018-07-12T21:51:28.347Z,6.20
2018-07-12T21:53:55.499Z,6.10
2018-07-12T21:56:22.633Z,6.33
2018-07-12T21:58:49.849Z,5.37
2018-07-12T22:01:16.957Z,6.50
2018-07-12T22:03:44.155Z,6.53
2018-07-12T22:06:11.300Z,6.23
2018-07-12T22:08:38.427Z,5.63
2018-07-12T22:11:06.094Z,5.20
2018-07-12T22:13:34.430Z,6.67
2018-07-12T22:16:01.746Z,5.53
2018-07-12T22:18:28.969Z,5.13
2018-07-12T22:20:56.084Z,5.27
2018-07-12T22:23:23.257Z,6.03
2018-07-12T22:25:50.372Z,6.07
2018-07-12T22:28:17.483Z,5.70
2018-07-12T22:30:44.637Z,5.33
2018-07-12T22:33:11.864Z,5.87
2018-07-12T22:35:39.011Z,7.10
2018-07-12T22:38:06.164Z,6.10
2018-07-12T22:40:33.346Z,6.40
2018-07-12T22:43:00.501Z,5.37
2018-07-12T22:45:27.675Z,5.53
2018-07-12T22:47:55.019Z,5.73
2018-07-12T22:50:22.197Z,6.07
2018-07-12T22:52:49.348Z,5.43
2018-07-12T22:55:17.908Z,6.20
2018-07-12T22:57:45.023Z,5.87
2018-07-12T23:00:12.248Z,6.10
2018-07-12T23:02:39.565Z,5.80
2018-07-12T23:05:06.945Z,6.40
2018-07-12T23:07:34.060Z,6.33
2018-07-12T23:10:01.219Z,5.57
2018-07-12T23:12:28.615Z,5.33
2018-07-12T23:14:55.740Z,6.20
2018-07-12T23:17:22.900Z,6.60
2018-07-12T23:19:50.301Z,5.70
2018-07-12T23:22:17.457Z,7.37
2018-07-12T23:24:44.686Z,5.93
2018-07-12T23:27:11.829Z,6.40
2018-07-12T23:29:38.959Z,5.83
2018-07-12T23:32:06.049Z,5.50
2018-07-12T23:34:33.194Z,6.13
2018-07-12T23:37:00.365Z,5.83
2018-07-12T23:39:27.577Z,7.80
2018-07-12T23:41:54.736Z,7.43
2018-07-12T23:44:21.961Z,7.87
2018-07-12T23:46:49.212Z,7.03
2018-07-12T23:49:16.347Z,6.53
2018-07-12T23:51:43.747Z,7.20
2018-07-12T23:54:10.901Z,7.37
2018-07-12T23:56:38.081Z,6.33
2018-07-12T23:59:05.207Z,6.60
